createdAt,value
2022-12-11T00:00:48.246Z,16.30
2022-12-11T00:03:17.185Z,16.23
2022-12-11T00:05:45.431Z,15.53
2022-12-11T00:08:13.307Z,14.60
2022-12-11T00:10:40.242Z,16.90
2022-12-11T00:13:07.140Z,16.43
2022-12-11T00:15:34.021Z,17.50
2022-12-11T00:18:00.883Z,15.67
2022-12-11T00:20:27.773Z,17.60
2022-12-11T00:22:54.639Z,16.37
2022-12-11T00:25:21.523Z,16.40
2022-12-11T00:27:48.373Z,14.87
2022-12-11T00:30:15.251Z,16.77
2022-12-11T00:32:43.082Z,14.87
2022-12-11T00:35:11.044Z,16.27
2022-12-11T00:37:38.131Z,13.80
2022-12-11T00:40:05.630Z,15.13
2022-12-11T00:42:32.522Z,15.13
2022-12-11T00:44:59.413Z,15.00
2022-12-11T00:47:26.298Z,15.27
2022-12-11T00:49:53.170Z,15.33
2022-12-11T00:52:20.040Z,15.30
2022-12-11T00:54:46.935Z,14.87
2022-12-11T00:57:13.840Z,15.17
2022-12-11T00:59:40.779Z,14.03
2022-12-11T01:02:07.643Z,14.37
2022-12-11T01:04:36.810Z,13.97
2022-12-11T01:07:03.813Z,13.33
2022-12-11T01:09:49.071Z,14.57
2022-12-11T01:12:15.951Z,14.50
2022-12-11T01:14:42.845Z,14.00
2022-12-11T01:17:09.715Z,14.57
2022-12-11T01:19:37.259Z,14.47
2022-12-11T01:22:04.122Z,13.40
2022-12-11T01:24:31.005Z,13.10
2022-12-11T01:26:57.887Z,12.77
2022-12-11T01:29:24.776Z,12.53
2022-12-11T01:31:51.653Z,13.70
2022-12-11T01:34:18.545Z,15.07
2022-12-11T01:36:45.417Z,13.30
2022-12-11T01:39:12.310Z,13.63
2022-12-11T01:41:39.759Z,13.30
2022-12-11T01:44:30.835Z,17.00
2022-12-11T01:46:58.471Z,14.40
2022-12-11T01:49:27.774Z,13.00
2022-12-11T01:52:08.210Z,13.73
2022-12-11T01:54:35.604Z,14.40
2022-12-11T01:57:08.735Z,13.17
2022-12-11T01:59:40.251Z,11.73
2022-12-11T02:02:22.799Z,13.30
2022-12-11T02:04:49.817Z,12.87
2022-12-11T02:07:16.761Z,12.53
2022-12-11T02:09:46.865Z,12.63
2022-12-11T02:12:52.746Z,13.27
2022-12-11T02:15:32.057Z,13.37
2022-12-11T02:18:24.904Z,12.00
2022-12-11T02:21:07.846Z,12.10
2022-12-11T02:23:56.953Z,12.70
2022-12-11T02:27:09.322Z,13.10
2022-12-11T02:29:42.879Z,13.17
2022-12-11T02:32:16.654Z,12.17
2022-12-11T02:34:49.794Z,12.17
2022-12-11T02:37:21.966Z,12.00
2022-12-11T02:39:52.797Z,12.77
2022-12-11T02:42:21.433Z,13.17
2022-12-11T02:44:50.090Z,13.10
2022-12-11T02:47:19.253Z,11.73
2022-12-11T02:49:49.727Z,13.60
2022-12-11T02:52:20.890Z,12.00
2022-12-11T02:54:49.704Z,12.90
2022-12-11T02:57:27.827Z,12.60
2022-12-11T02:59:54.784Z,12.33
2022-12-11T03:02:21.771Z,12.73
2022-12-11T03:04:49.932Z,13.47
2022-12-11T03:07:25.015Z,13.67
2022-12-11T03:09:52.544Z,12.43
2022-12-11T03:12:25.773Z,12.03
2022-12-11T03:14:52.727Z,13.00
2022-12-11T03:17:23.589Z,11.83
2022-12-11T03:20:30.432Z,11.73
2022-12-11T03:23:21.596Z,12.57
2022-12-11T03:26:01.689Z,12.00
2022-12-11T03:28:56.023Z,12.43
2022-12-11T03:31:30.990Z,12.53
2022-12-11T03:34:03.631Z,11.80
2022-12-11T03:36:37.896Z,11.80
2022-12-11T03:39:15.260Z,11.80
2022-12-11T03:41:44.219Z,11.33
2022-12-11T03:44:12.788Z,11.73
2022-12-11T03:46:42.366Z,13.10
2022-12-11T03:49:16.394Z,11.93
2022-12-11T03:51:48.626Z,12.10
2022-12-11T03:54:16.787Z,11.37
2022-12-11T03:56:45.937Z,12.40
2022-12-11T03:59:13.150Z,12.73
2022-12-11T04:01:40.848Z,11.83
2022-12-11T04:04:07.833Z,11.53
2022-12-11T04:06:34.805Z,11.63
2022-12-11T04:09:01.701Z,12.53
2022-12-11T04:11:34.389Z,11.00
2022-12-11T04:14:29.757Z,10.97
2022-12-11T04:16:58.199Z,11.83
2022-12-11T04:19:44.504Z,11.37
2022-12-11T04:22:32.130Z,11.93
2022-12-11T04:24:59.422Z,11.67
2022-12-11T04:27:45.297Z,12.20
2022-12-11T04:30:17.360Z,10.70
2022-12-11T04:32:44.327Z,11.17
2022-12-11T04:35:12.460Z,11.30
2022-12-11T04:37:40.095Z,11.10
2022-12-11T04:40:11.806Z,10.97
2022-12-11T04:42:38.997Z,11.03
2022-12-11T04:45:08.262Z,11.90
2022-12-11T04:47:37.179Z,10.53
2022-12-11T04:50:07.268Z,10.77
2022-12-11T04:52:34.274Z,9.30
2022-12-11T04:55:01.159Z,10.13
2022-12-11T04:57:28.025Z,10.10
2022-12-11T04:59:54.968Z,11.43
2022-12-11T05:02:21.908Z,11.10
2022-12-11T05:04:48.820Z,11.37
2022-12-11T05:07:15.713Z,10.80
2022-12-11T05:09:42.603Z,10.77
2022-12-11T05:12:09.602Z,10.33
2022-12-11T05:14:36.463Z,12.10
2022-12-11T05:17:03.347Z,11.23
2022-12-11T05:19:30.297Z,10.83
2022-12-11T05:21:57.179Z,11.13
2022-12-11T05:24:24.055Z,11.67
2022-12-11T05:26:50.960Z,10.37
2022-12-11T05:29:17.842Z,11.83
2022-12-11T05:31:44.866Z,11.90
2022-12-11T05:34:11.823Z,12.33
2022-12-11T05:36:38.734Z,11.77
2022-12-11T05:39:05.649Z,11.37
2022-12-11T05:41:33.043Z,11.03
2022-12-11T05:44:00.171Z,11.73
2022-12-11T05:46:30.171Z,10.97
2022-12-11T05:49:00.944Z,11.27
2022-12-11T05:51:29.679Z,12.67
2022-12-11T05:53:57.937Z,10.60
2022-12-11T05:56:28.545Z,11.57
2022-12-11T05:58:57.135Z,10.27
2022-12-11T06:01:30.199Z,11.03
2022-12-11T06:03:58.274Z,10.60
2022-12-11T06:06:26.162Z,10.53
2022-12-11T06:08:55.756Z,10.57
2022-12-11T06:11:24.431Z,11.17
2022-12-11T06:13:52.809Z,10.33
2022-12-11T06:16:20.804Z,10.23
2022-12-11T06:18:47.863Z,11.50
2022-12-11T06:21:22.431Z,10.57
2022-12-11T06:23:52.202Z,10.83
2022-12-11T06:26:20.334Z,11.27
2022-12-11T06:28:48.318Z,10.77
2022-12-11T06:31:15.781Z,11.60
2022-12-11T06:33:43.338Z,9.83
2022-12-11T06:36:17.676Z,10.90
2022-12-11T06:38:44.767Z,10.57
2022-12-11T06:41:11.807Z,10.83
2022-12-11T06:43:41.193Z,11.97
2022-12-11T06:46:11.679Z,12.00
2022-12-11T06:48:38.969Z,10.67
2022-12-11T06:51:08.564Z,11.10
2022-12-11T06:53:35.618Z,11.07
2022-12-11T06:56:05.786Z,11.80
2022-12-11T06:58:34.693Z,11.67
2022-12-11T07:01:02.203Z,13.03
2022-12-11T07:03:29.224Z,11.20
2022-12-11T07:06:02.282Z,12.47
2022-12-11T07:08:29.682Z,11.20
2022-12-11T07:11:13.313Z,11.47
2022-12-11T07:13:42.163Z,11.20
2022-12-11T07:16:11.683Z,11.60
2022-12-11T07:18:41.373Z,10.93
2022-12-11T07:21:09.878Z,11.47
2022-12-11T07:23:37.092Z,10.70
2022-12-11T07:26:10.888Z,12.10
2022-12-11T07:28:38.202Z,11.70
2022-12-11T07:31:14.393Z,11.50
2022-12-11T07:33:42.580Z,10.90
2022-12-11T07:36:12.150Z,10.40
2022-12-11T07:38:39.561Z,10.47
2022-12-11T07:41:11.376Z,10.60
2022-12-11T07:43:38.376Z,11.13
2022-12-11T07:46:12.962Z,12.17
2022-12-11T07:48:42.187Z,10.77
2022-12-11T07:51:26.614Z,11.50
2022-12-11T07:53:57.658Z,12.27
2022-12-11T07:56:25.361Z,11.40
2022-12-11T07:58:52.291Z,11.53
2022-12-11T08:01:26.075Z,10.20
2022-12-11T08:03:53.870Z,11.43
2022-12-11T08:06:27.034Z,11.63
2022-12-11T08:08:55.497Z,10.87
2022-12-11T08:11:23.143Z,11.33
2022-12-11T08:13:50.359Z,11.70
2022-12-11T08:16:18.905Z,10.87
2022-12-11T08:18:47.523Z,12.93
2022-12-11T08:21:20.761Z,11.07
2022-12-11T08:23:48.527Z,11.53
2022-12-11T08:26:26.030Z,11.83
2022-12-11T08:28:53.651Z,11.90
2022-12-11T08:31:21.086Z,12.13
2022-12-11T08:33:48.586Z,11.60
2022-12-11T08:36:19.816Z,12.00
2022-12-11T08:38:47.041Z,11.47
2022-12-11T08:41:20.751Z,11.00
2022-12-11T08:43:48.366Z,13.10
2022-12-11T08:46:15.474Z,11.10
2022-12-11T08:48:43.605Z,11.40
2022-12-11T08:51:14.799Z,12.00
2022-12-11T08:53:42.594Z,10.90
2022-12-11T08:56:19.659Z,11.00
2022-12-11T08:58:47.468Z,11.33
2022-12-11T09:01:25.705Z,11.67
2022-12-11T09:03:54.605Z,10.40
2022-12-11T09:06:24.753Z,11.57
2022-12-11T09:08:53.657Z,10.97
2022-12-11T09:11:25.720Z,12.07
2022-12-11T09:13:53.591Z,13.00
2022-12-11T09:16:23.247Z,12.40
2022-12-11T09:18:53.511Z,11.30
2022-12-11T09:21:23.878Z,10.70
2022-12-11T09:23:55.419Z,14.60
2022-12-11T09:26:23.133Z,13.30
2022-12-11T09:28:53.845Z,13.10
2022-12-11T09:31:29.752Z,11.63
2022-12-11T09:34:00.405Z,12.73
2022-12-11T09:36:28.371Z,11.27
2022-12-11T09:38:55.276Z,12.83
2022-12-11T09:41:36.986Z,11.97
2022-12-11T09:44:32.772Z,12.23
2022-12-11T09:47:00.547Z,12.10
2022-12-11T09:49:41.598Z,12.83
2022-12-11T09:52:14.394Z,12.37
2022-12-11T09:54:51.103Z,12.60
2022-12-11T09:57:35.234Z,12.90
2022-12-11T10:00:12.953Z,11.30
2022-12-11T10:03:09.547Z,11.80
2022-12-11T10:06:17.993Z,11.50
2022-12-11T10:09:24.446Z,14.50
2022-12-11T10:12:48.753Z,12.10
2022-12-11T10:15:51.953Z,11.47
2022-12-11T10:18:23.300Z,12.27
2022-12-11T10:20:53.116Z,11.20
2022-12-11T10:23:27.335Z,12.40
2022-12-11T10:26:09.529Z,12.67
2022-12-11T10:28:36.516Z,11.50
2022-12-11T10:31:18.830Z,12.07
2022-12-11T10:33:56.603Z,12.67
2022-12-11T10:36:37.444Z,11.50
2022-12-11T10:39:12.887Z,12.00
2022-12-11T10:41:45.941Z,13.30
2022-12-11T10:44:22.172Z,12.00
2022-12-11T10:47:12.573Z,12.03
2022-12-11T10:49:51.842Z,11.47
2022-12-11T10:52:38.053Z,11.53
2022-12-11T10:55:29.460Z,12.10
2022-12-11T10:58:01.918Z,12.40
2022-12-11T11:00:41.261Z,12.13
2022-12-11T11:03:24.728Z,12.30
2022-12-11T11:06:06.419Z,12.60
2022-12-11T11:08:49.354Z,11.80
2022-12-11T11:11:39.362Z,13.80
2022-12-11T11:14:11.918Z,12.20
2022-12-11T11:16:40.550Z,12.80
2022-12-11T11:19:07.635Z,11.53
2022-12-11T11:21:35.911Z,13.47
2022-12-11T11:24:03.862Z,13.10
2022-12-11T11:27:04.471Z,12.33
2022-12-11T11:29:34.518Z,12.77
2022-12-11T11:32:17.720Z,15.00
2022-12-11T11:34:44.616Z,13.60
2022-12-11T11:37:33.123Z,13.23
2022-12-11T11:40:21.735Z,13.40
2022-12-11T11:43:36.973Z,13.40
2022-12-11T11:46:24.563Z,12.60
2022-12-11T11:49:19.273Z,12.30
2022-12-11T11:52:10.144Z,12.33
2022-12-11T11:54:48.308Z,14.70
2022-12-11T11:57:32.960Z,13.60
2022-12-11T12:00:16.163Z,11.97
2022-12-11T12:02:43.591Z,11.97
2022-12-11T12:05:14.083Z,12.30
2022-12-11T12:07:59.126Z,12.47
2022-12-11T12:10:44.550Z,13.53
2022-12-11T12:13:50.790Z,13.43
2022-12-11T12:16:53.876Z,14.83
2022-12-11T12:19:45.405Z,13.93
2022-12-11T12:22:34.819Z,14.43
2022-12-11T12:25:35.122Z,15.23
2022-12-11T12:28:27.359Z,14.40
2022-12-11T12:31:26.076Z,14.60
2022-12-11T12:34:13.536Z,16.33
2022-12-11T12:37:11.342Z,15.00
2022-12-11T12:40:14.925Z,14.03
2022-12-11T12:43:10.426Z,16.53
2022-12-11T12:46:42.083Z,14.50
2022-12-11T12:49:17.505Z,14.53
2022-12-11T12:51:45.415Z,15.33
2022-12-11T12:54:16.678Z,16.17
2022-12-11T12:56:46.964Z,16.70
2022-12-11T12:59:26.919Z,18.93
2022-12-11T13:02:03.104Z,17.10
2022-12-11T13:04:59.261Z,16.63
2022-12-11T13:07:30.616Z,15.30
2022-12-11T13:10:03.375Z,15.97
2022-12-11T13:12:52.457Z,16.27
2022-12-11T13:15:43.570Z,15.87
2022-12-11T13:18:35.240Z,15.57
2022-12-11T13:21:24.992Z,16.80
2022-12-11T13:23:51.944Z,17.23
2022-12-11T13:26:33.394Z,17.40
2022-12-11T13:29:00.271Z,17.37
2022-12-11T13:31:35.740Z,16.60
2022-12-11T13:34:20.773Z,18.10
2022-12-11T13:36:53.563Z,15.83
2022-12-11T13:39:27.460Z,16.13
2022-12-11T13:42:02.487Z,18.93
2022-12-11T13:44:41.729Z,17.00
2022-12-11T13:47:14.715Z,16.90
2022-12-11T13:49:44.536Z,16.10
2022-12-11T13:52:20.394Z,18.00
2022-12-11T13:54:50.857Z,18.83
2022-12-11T13:57:25.704Z,18.03
2022-12-11T13:59:56.864Z,17.17
2022-12-11T14:02:40.468Z,17.73
2022-12-11T14:05:11.169Z,19.07
2022-12-11T14:07:51.115Z,18.60
2022-12-11T14:10:25.968Z,18.50
2022-12-11T14:13:27.182Z,16.77
2022-12-11T14:15:54.760Z,18.70
2022-12-11T14:18:26.199Z,19.00
2022-12-11T14:21:02.662Z,18.03
2022-12-11T14:23:36.049Z,19.30
2022-12-11T14:26:17.472Z,17.27
2022-12-11T14:28:44.447Z,16.63
2022-12-11T14:31:16.398Z,18.20
2022-12-11T14:33:59.223Z,17.00
2022-12-11T14:36:26.938Z,18.60
2022-12-11T14:39:01.559Z,17.37
2022-12-11T14:41:53.775Z,17.90
2022-12-11T14:44:23.878Z,18.60
2022-12-11T14:47:04.099Z,18.57
2022-12-11T14:50:08.489Z,17.10
2022-12-11T14:52:47.364Z,17.40
2022-12-11T14:55:26.295Z,18.27
2022-12-11T14:58:12.222Z,19.47
2022-12-11T15:00:39.483Z,18.47
2022-12-11T15:03:17.672Z,18.83
2022-12-11T15:05:58.407Z,19.10
2022-12-11T15:08:38.759Z,21.40
2022-12-11T15:11:12.712Z,18.23
2022-12-11T15:13:57.148Z,19.93
2022-12-11T15:16:28.649Z,20.47
2022-12-11T15:18:58.880Z,19.70
2022-12-11T15:21:35.373Z,22.47
2022-12-11T15:24:07.008Z,19.30
2022-12-11T15:26:46.451Z,20.57
2022-12-11T15:29:36.396Z,18.07
2022-12-11T15:32:09.255Z,23.57
2022-12-11T15:34:57.460Z,23.27
2022-12-11T15:37:30.587Z,20.13
2022-12-11T15:40:00.919Z,20.97
2022-12-11T15:42:40.871Z,21.07
2022-12-11T15:45:20.795Z,19.90
2022-12-11T15:47:49.450Z,20.20
2022-12-11T15:50:26.142Z,18.67
2022-12-11T15:52:55.028Z,19.87
2022-12-11T15:55:25.851Z,18.07
2022-12-11T15:57:56.680Z,17.97
2022-12-11T16:00:24.345Z,17.70
2022-12-11T16:02:51.989Z,18.70
2022-12-11T16:05:19.234Z,19.67
2022-12-11T16:07:46.243Z,19.20
2022-12-11T16:10:18.560Z,19.33
2022-12-11T16:12:45.803Z,18.37
2022-12-11T16:15:21.461Z,19.00
2022-12-11T16:17:50.208Z,18.83
2022-12-11T16:20:17.753Z,18.90
2022-12-11T16:22:44.710Z,18.90
2022-12-11T16:25:12.057Z,18.80
2022-12-11T16:27:39.217Z,18.63
2022-12-11T16:30:06.738Z,18.60
2022-12-11T16:32:33.715Z,18.90
2022-12-11T16:35:01.124Z,19.13
2022-12-11T16:37:28.331Z,20.80
2022-12-11T16:39:55.379Z,17.53
2022-12-11T16:42:22.257Z,17.80
2022-12-11T16:44:49.140Z,20.83
2022-12-11T16:47:16.037Z,19.73
2022-12-11T16:49:45.420Z,19.67
2022-12-11T16:52:15.282Z,22.30
2022-12-11T16:54:44.494Z,21.93
2022-12-11T16:57:11.381Z,21.93
2022-12-11T16:59:38.693Z,20.37
2022-12-11T17:02:06.457Z,21.43
2022-12-11T17:04:33.392Z,19.17
2022-12-11T17:07:00.250Z,18.83
2022-12-11T17:09:27.140Z,20.30
2022-12-11T17:11:54.335Z,18.73
2022-12-11T17:14:21.227Z,18.37
2022-12-11T17:16:48.297Z,19.10
2022-12-11T17:19:16.266Z,18.10
2022-12-11T17:21:48.394Z,19.13
2022-12-11T17:24:17.908Z,18.63
2022-12-11T17:26:44.786Z,20.73
2022-12-11T17:29:13.245Z,19.10
2022-12-11T17:31:40.537Z,20.50
2022-12-11T17:34:07.739Z,21.90
2022-12-11T17:36:34.751Z,19.03
2022-12-11T17:39:01.663Z,18.00
2022-12-11T17:41:28.561Z,18.20
2022-12-11T17:43:55.928Z,18.60
2022-12-11T17:46:23.212Z,18.50
2022-12-11T17:48:50.207Z,18.07
2022-12-11T17:51:23.833Z,16.93
2022-12-11T17:53:55.611Z,17.20
2022-12-11T17:56:23.915Z,16.97
2022-12-11T17:58:50.838Z,17.80
2022-12-11T18:01:18.252Z,17.27
2022-12-11T18:03:45.238Z,18.13
2022-12-11T18:06:15.481Z,16.67
2022-12-11T18:08:43.344Z,16.70
2022-12-11T18:11:15.112Z,15.83
2022-12-11T18:13:43.603Z,16.07
2022-12-11T18:16:19.277Z,16.23
2022-12-11T18:18:48.141Z,13.60
2022-12-11T18:21:22.719Z,14.03
2022-12-11T18:23:50.269Z,13.23
2022-12-11T18:26:21.776Z,13.03
2022-12-11T18:28:50.175Z,11.20
2022-12-11T18:31:17.750Z,11.23
2022-12-11T18:33:45.776Z,11.10
2022-12-11T18:36:15.657Z,10.70
2022-12-11T18:38:44.220Z,10.80
2022-12-11T18:41:13.237Z,8.87
2022-12-11T18:43:41.094Z,9.50
2022-12-11T18:46:10.555Z,9.03
2022-12-11T18:48:37.863Z,8.00
2022-12-11T18:51:10.691Z,8.60
2022-12-11T18:53:39.451Z,8.83
2022-12-11T18:56:10.328Z,7.40
2022-12-11T18:58:37.776Z,8.50
2022-12-11T19:01:11.774Z,8.00
2022-12-11T19:03:38.720Z,7.27
2022-12-11T19:06:08.509Z,7.60
2022-12-11T19:08:35.576Z,6.70
2022-12-11T19:11:02.545Z,6.80
2022-12-11T19:13:29.434Z,7.03
2022-12-11T19:15:56.359Z,5.40
2022-12-11T19:18:23.318Z,6.40
2022-12-11T19:20:55.416Z,7.03
2022-12-11T19:23:29.979Z,5.33
2022-12-11T19:25:56.927Z,4.87
2022-12-11T19:28:24.002Z,5.13
2022-12-11T19:30:50.948Z,5.20
2022-12-11T19:33:17.907Z,5.17
2022-12-11T19:35:45.061Z,5.40
2022-12-11T19:38:12.921Z,4.73
2022-12-11T19:40:42.918Z,4.87
2022-12-11T19:43:10.594Z,4.80
2022-12-11T19:45:37.646Z,4.00
2022-12-11T19:48:05.049Z,5.20
2022-12-11T19:50:35.727Z,4.03
2022-12-11T19:53:02.964Z,4.47
2022-12-11T19:55:29.874Z,3.97
2022-12-11T19:57:56.827Z,4.00
2022-12-11T20:00:24.605Z,3.40
2022-12-11T20:02:51.715Z,3.73
2022-12-11T20:05:18.721Z,4.53
2022-12-11T20:07:45.738Z,4.70
2022-12-11T20:10:12.864Z,4.60
2022-12-11T20:12:39.797Z,4.13
2022-12-11T20:15:07.163Z,3.43
2022-12-11T20:17:34.080Z,3.97
2022-12-11T20:20:01.079Z,3.70
2022-12-11T20:22:27.942Z,4.40
2022-12-11T20:24:54.830Z,3.90
2022-12-11T20:27:21.695Z,3.87
2022-12-11T20:29:48.737Z,4.13
2022-12-11T20:32:15.662Z,4.10
2022-12-11T20:34:44.001Z,3.70
2022-12-11T20:37:10.866Z,3.97
2022-12-11T20:39:37.810Z,3.70
2022-12-11T20:42:05.082Z,3.63
2022-12-11T20:44:32.729Z,4.00
2022-12-11T20:46:59.745Z,3.80
2022-12-11T20:49:26.683Z,3.80
2022-12-11T20:51:53.983Z,3.30
2022-12-11T20:54:20.884Z,3.60
2022-12-11T20:56:47.769Z,3.60
2022-12-11T20:59:14.716Z,2.93
2022-12-11T21:01:41.776Z,3.60
2022-12-11T21:04:09.045Z,2.90
2022-12-11T21:06:38.765Z,2.70
2022-12-11T21:09:17.600Z,2.70
2022-12-11T21:11:44.607Z,2.20
2022-12-11T21:14:11.548Z,2.23
2022-12-11T21:16:38.493Z,1.93
2022-12-11T21:19:06.080Z,2.10
2022-12-11T21:21:36.766Z,1.90
2022-12-11T21:24:04.486Z,2.10
2022-12-11T21:26:31.372Z,1.93
2022-12-11T21:28:58.385Z,1.50
2022-12-11T21:31:25.552Z,1.83
2022-12-11T21:33:52.482Z,1.80
2022-12-11T21:36:19.514Z,2.00
2022-12-11T21:38:47.578Z,1.90
2022-12-11T21:41:19.362Z,1.63
2022-12-11T21:44:40.896Z,2.20
2022-12-11T21:46:35.271Z,2.50
2022-12-11T21:49:02.212Z,2.03
2022-12-11T21:51:37.147Z,1.80
2022-12-11T21:54:07.334Z,1.83
2022-12-11T21:56:34.238Z,2.13
2022-12-11T21:59:01.553Z,2.00
2022-12-11T22:01:37.134Z,1.80
2022-12-11T22:04:05.457Z,2.37
2022-12-11T22:06:32.707Z,2.40
2022-12-11T22:08:59.587Z,2.17
2022-12-11T22:11:30.777Z,1.50
2022-12-11T22:13:58.653Z,1.97
2022-12-11T22:16:25.613Z,2.13
2022-12-11T22:18:52.815Z,2.50
2022-12-11T22:21:20.165Z,2.50
2022-12-11T22:23:47.343Z,2.00
2022-12-11T22:26:24.517Z,2.10
2022-12-11T22:28:52.030Z,2.50
2022-12-11T22:31:22.175Z,1.87
2022-12-11T22:33:50.551Z,2.53
2022-12-11T22:36:18.910Z,2.47
2022-12-11T22:38:46.621Z,2.43
2022-12-11T22:41:28.097Z,3.17
2022-12-11T22:43:55.942Z,2.80
2022-12-11T22:46:27.491Z,2.50
2022-12-11T22:48:54.851Z,2.80
2022-12-11T22:51:22.828Z,2.60
2022-12-11T22:53:49.704Z,2.77
2022-12-11T22:56:16.683Z,3.00
2022-12-11T22:58:43.579Z,3.00
2022-12-11T23:01:15.390Z,2.83
2022-12-11T23:03:42.591Z,3.17
2022-12-11T23:06:12.196Z,3.30
2022-12-11T23:08:40.283Z,3.50
2022-12-11T23:11:22.300Z,3.60
2022-12-11T23:13:49.188Z,3.50
2022-12-11T23:16:16.376Z,4.20
2022-12-11T23:18:43.383Z,5.10
2022-12-11T23:21:11.329Z,4.40
2022-12-11T23:23:38.310Z,4.50
2022-12-11T23:26:07.146Z,3.50
2022-12-11T23:28:34.083Z,4.47
2022-12-11T23:31:01.095Z,5.67
2022-12-11T23:33:28.027Z,4.73
2022-12-11T23:35:54.959Z,5.07
2022-12-11T23:38:21.815Z,4.20
2022-12-11T23:40:48.856Z,4.47
2022-12-11T23:43:15.712Z,4.17
2022-12-11T23:45:46.182Z,4.30
2022-12-11T23:48:14.191Z,4.97
2022-12-11T23:50:42.738Z,4.10
2022-12-11T23:53:10.587Z,4.63
2022-12-11T23:55:41.088Z,5.13
2022-12-11T23:58:08.176Z,4.30
